Airfield :
LOGIN :

Register | Disclaimer

   EN    FR    IT 

 










Legend :    VFR   Marginal VFR   IFR   Intensive IFR   Very Intensive IFR
Visi :
Ceiling :
>= 8 km
>= 3000ft
5 to 8 km
1000 to 3000 ft
1500m to 5 km
500 to 1000 ft
800 to 1500m
200 to 500 ft
< 800m
< 200 ft
Symbols :   Thunderstorms  Fog  Heavy snow  Heavy precipitations  Wind > 20 kt
SIGMETs :     Misc.  Thunderstorms  Icing  Turbulence  Mountain Waves  Volcanic Ashes






- Airport Elevation : 20 ft


EBFN - Koksijde

CURRENT METAR :
  • 052025Z AUTO 07003KT 9000 BKN240/// 05/03 Q1044 BLU

EXPIRED METARs :
  • 051955Z AUTO 04005KT 9999 SCT180/// BKN240/// 05/03 Q1044 BLU
  • 051925Z AUTO 03006KT 9999 BKN180/// BKN230/// 05/04 Q1044 BLU
  • 051855Z AUTO 36008KT 9999 BKN180/// 06/04 Q1043 BLU
  • 051825Z AUTO 02008KT 9999 OVC180/// 06/04 Q1043 BLU
  • 051755Z AUTO 02009KT 9999 OVC180/// 06/03 Q1043 BLU

TAF TAF EBFN
Valid from the 05 at 19:00 until the 06 at 07:00 UTC


051610Z 0519/0607 02010G20KT 9999 FEW025
PROB30
TEMPO 0602/0607 3000 BR BY EBWM



MET'MAP, your aeronautical weather chart ! - Copyright ORBIFLY December 2007 - Disclaimer

ORBIFLY MET'MAP TEAM :

Programming & Development : Alexandra Zaïnal
Original concept : Baudouin d'Aumeries
Technical & hardware support : Manuel Goepfert
Assistance : Marc-Olivier Méhu




SOURCES & CREDITS :

   NOAA